createdAt,value
2022-11-27T00:00:23.056Z,5.60
2022-11-27T00:03:11.555Z,5.60
2022-11-27T00:06:00.328Z,5.60
2022-11-27T00:08:49.329Z,5.50
2022-11-27T00:11:40.573Z,5.50
2022-11-27T00:14:29.207Z,5.40
2022-11-27T00:17:17.653Z,5.40
2022-11-27T00:20:08.115Z,5.30
2022-11-27T00:22:56.462Z,5.30
2022-11-27T00:25:52.009Z,5.20
2022-11-27T00:28:42.197Z,5.20
2022-11-27T00:31:34.008Z,5.20
2022-11-27T00:34:22.538Z,5.20
2022-11-27T00:37:12.055Z,5.20
2022-11-27T00:40:00.512Z,5.20
2022-11-27T00:42:48.890Z,5.20
2022-11-27T00:45:38.593Z,5.20
2022-11-27T00:48:27.164Z,5.10
2022-11-27T00:51:19.728Z,5.20
2022-11-27T00:54:08.550Z,5.20
2022-11-27T00:56:57.028Z,5.20
2022-11-27T00:59:46.369Z,5.20
2022-11-27T01:02:36.594Z,5.30
2022-11-27T01:05:25.124Z,5.30
2022-11-27T01:08:13.523Z,5.40
2022-11-27T01:11:02.839Z,5.40
2022-11-27T01:13:51.242Z,5.30
2022-11-27T01:16:43.148Z,5.30
2022-11-27T01:19:33.243Z,5.30
2022-11-27T01:22:21.637Z,5.30
2022-11-27T01:25:10.779Z,5.20
2022-11-27T01:27:59.142Z,5.10
2022-11-27T01:30:47.921Z,5.10
2022-11-27T01:33:36.695Z,5.00
2022-11-27T01:36:27.774Z,5.00
2022-11-27T01:39:19.598Z,4.90
2022-11-27T01:42:10.754Z,4.80
2022-11-27T01:44:59.122Z,4.80
2022-11-27T01:47:52.334Z,4.80
2022-11-27T01:50:41.468Z,4.80
2022-11-27T01:53:31.386Z,4.80
2022-11-27T01:56:21.205Z,4.80
2022-11-27T01:59:09.759Z,4.80
2022-11-27T02:01:58.295Z,4.80
2022-11-27T02:04:46.808Z,4.80
2022-11-27T02:07:35.829Z,4.80
2022-11-27T02:10:39.074Z,5.40
2022-11-27T02:13:35.966Z,4.80
2022-11-27T02:16:36.208Z,4.90
2022-11-27T02:19:43.648Z,4.80
2022-11-27T02:22:52.553Z,4.80
2022-11-27T02:26:03.079Z,4.80
2022-11-27T02:29:03.245Z,4.80
2022-11-27T02:32:00.139Z,4.80
2022-11-27T02:34:56.125Z,4.80
2022-11-27T02:37:50.268Z,4.70
2022-11-27T02:40:46.078Z,6.30
2022-11-27T02:43:40.029Z,4.70
2022-11-27T02:46:30.771Z,4.70
2022-11-27T02:49:21.206Z,4.70
2022-11-27T02:52:12.682Z,4.70
2022-11-27T02:55:07.010Z,4.70
2022-11-27T02:57:59.691Z,4.70
2022-11-27T03:00:50.989Z,4.70
2022-11-27T03:03:46.872Z,4.70
2022-11-27T03:06:45.077Z,4.70
2022-11-27T03:09:38.087Z,4.60
2022-11-27T03:12:26.647Z,4.60
2022-11-27T03:15:15.465Z,4.60
2022-11-27T03:18:16.839Z,4.60
2022-11-27T03:21:19.847Z,4.50
2022-11-27T03:24:10.430Z,4.60
2022-11-27T03:27:00.693Z,4.50
2022-11-27T03:29:53.582Z,4.50
2022-11-27T03:32:42.115Z,4.50
2022-11-27T03:35:31.798Z,4.50
2022-11-27T03:38:21.601Z,4.50
2022-11-27T03:41:20.764Z,4.50
2022-11-27T03:44:24.713Z,4.50
2022-11-27T03:47:30.614Z,4.50
2022-11-27T03:50:31.576Z,4.60
2022-11-27T03:53:33.073Z,4.60
2022-11-27T03:56:34.862Z,4.50
2022-11-27T03:59:29.397Z,4.70
2022-11-27T04:02:31.383Z,4.70
2022-11-27T04:05:21.583Z,4.70
2022-11-27T04:08:10.015Z,4.80
2022-11-27T04:10:59.710Z,4.80
2022-11-27T04:13:48.261Z,4.80
2022-11-27T04:16:36.698Z,4.80
2022-11-27T04:19:25.071Z,4.70
2022-11-27T04:22:13.417Z,4.80
2022-11-27T04:25:01.767Z,4.80
2022-11-27T04:27:51.938Z,4.80
2022-11-27T04:30:40.314Z,4.90
2022-11-27T04:33:28.820Z,4.90
2022-11-27T04:36:17.255Z,4.90
2022-11-27T04:39:05.649Z,4.80
2022-11-27T04:41:54.041Z,4.80
2022-11-27T04:44:43.767Z,4.80
2022-11-27T04:47:32.097Z,4.80
2022-11-27T04:50:20.476Z,4.90
2022-11-27T04:53:08.909Z,4.90
2022-11-27T04:55:57.232Z,4.90
2022-11-27T04:58:45.560Z,5.00
2022-11-27T05:01:35.293Z,5.00
2022-11-27T05:04:23.870Z,5.00
2022-11-27T05:07:12.412Z,5.00
2022-11-27T05:10:01.787Z,5.00
2022-11-27T05:12:50.153Z,4.90
2022-11-27T05:15:38.490Z,4.90
2022-11-27T05:18:28.471Z,4.90
2022-11-27T05:21:16.999Z,5.00
2022-11-27T05:24:06.705Z,5.00
2022-11-27T05:26:55.769Z,5.00
2022-11-27T05:29:44.123Z,5.10
2022-11-27T05:32:32.958Z,5.00
2022-11-27T05:35:22.880Z,5.00
2022-11-27T05:38:11.387Z,5.00
2022-11-27T05:40:59.725Z,5.00
2022-11-27T05:43:48.735Z,5.00
2022-11-27T05:46:37.121Z,5.00
2022-11-27T05:49:25.505Z,5.00
2022-11-27T05:52:15.370Z,5.10
2022-11-27T05:55:04.255Z,5.20
2022-11-27T05:57:52.620Z,5.20
2022-11-27T06:00:40.982Z,5.10
2022-11-27T06:03:29.459Z,5.10
2022-11-27T06:06:20.339Z,5.10
2022-11-27T06:09:13.227Z,5.10
2022-11-27T06:12:01.974Z,5.10
2022-11-27T06:14:50.334Z,5.00
2022-11-27T06:17:38.670Z,5.00
2022-11-27T06:20:27.014Z,5.00
2022-11-27T06:23:15.340Z,5.00
2022-11-27T06:26:17.168Z,5.00
2022-11-27T06:29:05.660Z,5.10
2022-11-27T06:31:54.016Z,5.10
2022-11-27T06:34:42.624Z,5.10
2022-11-27T06:37:31.997Z,5.20
2022-11-27T06:40:20.427Z,5.20
2022-11-27T06:43:10.099Z,5.20
2022-11-27T06:45:59.193Z,5.20
2022-11-27T06:48:50.394Z,5.20
2022-11-27T06:51:38.889Z,5.20
2022-11-27T06:54:27.431Z,5.10
2022-11-27T06:57:16.377Z,5.10
2022-11-27T07:00:08.415Z,5.10
2022-11-27T07:02:56.756Z,5.20
2022-11-27T07:05:45.094Z,5.20
2022-11-27T07:08:34.952Z,5.20
2022-11-27T07:11:26.117Z,5.20
2022-11-27T07:14:14.489Z,5.20
2022-11-27T07:17:04.173Z,5.20
2022-11-27T07:19:52.553Z,5.30
2022-11-27T07:22:41.009Z,5.30
2022-11-27T07:25:29.383Z,5.30
2022-11-27T07:28:19.303Z,5.30
2022-11-27T07:31:10.216Z,5.30
2022-11-27T07:34:00.431Z,5.50
2022-11-27T07:36:48.777Z,5.60
2022-11-27T07:40:00.770Z,5.70
2022-11-27T07:42:45.721Z,5.70
2022-11-27T07:45:34.228Z,5.80
2022-11-27T07:48:23.118Z,5.90
2022-11-27T07:51:16.030Z,6.00
2022-11-27T07:54:04.631Z,6.10
2022-11-27T07:56:52.968Z,6.10
2022-11-27T07:59:47.008Z,6.20
2022-11-27T08:02:35.733Z,6.30
2022-11-27T08:05:24.115Z,6.50
2022-11-27T08:08:13.841Z,6.60
2022-11-27T08:11:02.162Z,6.70
2022-11-27T08:13:51.938Z,6.80
2022-11-27T08:16:40.364Z,6.90
2022-11-27T08:19:29.340Z,7.00
2022-11-27T08:22:20.641Z,7.20
2022-11-27T08:25:10.936Z,7.50
2022-11-27T08:27:59.288Z,7.60
2022-11-27T08:30:47.607Z,7.80
2022-11-27T08:33:36.561Z,8.00
2022-11-27T08:36:27.484Z,8.20
2022-11-27T08:39:15.820Z,8.30
2022-11-27T08:42:05.530Z,8.40
2022-11-27T08:44:53.912Z,8.40
2022-11-27T08:47:43.354Z,8.50
2022-11-27T08:50:31.818Z,8.60
2022-11-27T08:53:20.760Z,8.60
2022-11-27T08:56:12.792Z,8.60
2022-11-27T08:59:02.779Z,8.60
2022-11-27T09:01:51.192Z,8.60
2022-11-27T09:04:39.960Z,8.40
2022-11-27T09:07:28.592Z,8.20
2022-11-27T09:10:17.275Z,8.10
2022-11-27T09:13:05.719Z,8.20
2022-11-27T09:15:57.498Z,8.40
2022-11-27T09:18:47.458Z,8.60
2022-11-27T09:21:35.849Z,8.80
2022-11-27T09:24:24.820Z,8.90
2022-11-27T09:27:13.149Z,8.90
2022-11-27T09:30:01.476Z,8.90
2022-11-27T09:32:51.449Z,8.80
2022-11-27T09:35:40.726Z,8.90
2022-11-27T09:38:29.203Z,8.80
2022-11-27T09:41:46.297Z,8.80
2022-11-27T09:44:42.899Z,8.90
2022-11-27T09:47:41.642Z,9.10
2022-11-27T09:50:36.648Z,9.20
2022-11-27T09:53:33.806Z,9.40
2022-11-27T09:56:22.346Z,9.40
2022-11-27T09:59:18.184Z,9.40
2022-11-27T10:02:17.899Z,9.30
2022-11-27T10:05:18.527Z,9.30
2022-11-27T10:08:31.888Z,9.30
2022-11-27T10:11:31.500Z,9.40
2022-11-27T10:14:40.828Z,9.50
2022-11-27T10:17:37.811Z,9.60
2022-11-27T10:20:36.202Z,9.70
2022-11-27T10:23:42.644Z,9.80
2022-11-27T10:26:40.990Z,9.70
2022-11-27T10:29:43.291Z,9.70
2022-11-27T10:35:49.023Z,9.80
2022-11-27T10:38:42.290Z,10.00
2022-11-27T10:41:55.705Z,9.90
2022-11-27T10:44:51.756Z,9.80
2022-11-27T10:47:44.235Z,9.80
2022-11-27T10:50:33.688Z,10.00
2022-11-27T10:53:30.053Z,10.10
2022-11-27T10:56:58.836Z,10.10
2022-11-27T11:00:06.219Z,10.10
2022-11-27T11:03:01.651Z,10.20
2022-11-27T11:09:17.612Z,10.20
2022-11-27T11:12:20.956Z,10.40
2022-11-27T11:15:13.736Z,10.50
2022-11-27T11:18:02.125Z,10.50
2022-11-27T11:20:53.870Z,10.50
2022-11-27T11:23:42.496Z,10.40
2022-11-27T11:26:35.494Z,10.30
2022-11-27T11:29:41.151Z,10.40
2022-11-27T11:32:33.668Z,10.40
2022-11-27T11:35:30.028Z,10.40
2022-11-27T11:38:32.093Z,10.40
2022-11-27T11:41:21.674Z,10.40
2022-11-27T11:44:27.034Z,10.40
2022-11-27T11:47:23.003Z,10.40
2022-11-27T11:50:15.531Z,10.30
2022-11-27T11:53:13.364Z,10.30
2022-11-27T11:56:21.619Z,10.30
2022-11-27T11:59:22.110Z,10.40
2022-11-27T12:02:47.850Z,10.40
2022-11-27T12:05:50.891Z,10.30
2022-11-27T12:08:59.952Z,10.40
2022-11-27T12:11:58.963Z,10.40
2022-11-27T12:14:57.042Z,11.40
2022-11-27T12:18:00.949Z,10.20
2022-11-27T12:21:07.740Z,10.10
2022-11-27T12:24:20.049Z,10.20
2022-11-27T12:27:24.466Z,10.30
2022-11-27T12:30:20.679Z,10.30
2022-11-27T12:33:35.074Z,10.30
2022-11-27T12:36:44.314Z,10.30
2022-11-27T12:39:46.097Z,10.10
2022-11-27T12:42:41.785Z,10.10
2022-11-27T12:45:37.986Z,10.00
2022-11-27T12:48:34.606Z,9.90
2022-11-27T12:51:29.187Z,9.80
2022-11-27T12:54:26.641Z,9.80
2022-11-27T12:57:21.202Z,9.80
2022-11-27T13:00:19.178Z,9.90
2022-11-27T13:03:19.336Z,9.90
2022-11-27T13:06:15.066Z,9.70
2022-11-27T13:09:09.210Z,9.70
2022-11-27T13:11:59.109Z,9.80
2022-11-27T13:14:55.494Z,9.60
2022-11-27T13:17:46.324Z,9.60
2022-11-27T13:20:40.788Z,9.50
2022-11-27T13:23:34.352Z,9.30
2022-11-27T13:26:29.374Z,9.10
2022-11-27T13:29:28.312Z,9.10
2022-11-27T13:32:24.225Z,9.00
2022-11-27T13:35:26.931Z,9.00
2022-11-27T13:38:23.927Z,9.10
2022-11-27T13:41:24.870Z,9.00
2022-11-27T13:44:25.720Z,8.90
2022-11-27T13:47:21.604Z,8.90
2022-11-27T13:50:13.744Z,8.90
2022-11-27T13:53:07.354Z,8.80
2022-11-27T13:55:57.790Z,8.70
2022-11-27T13:58:47.629Z,8.70
2022-11-27T14:01:36.130Z,8.70
2022-11-27T14:04:24.733Z,8.60
2022-11-27T14:07:14.567Z,8.60
2022-11-27T14:10:13.646Z,8.60
2022-11-27T14:13:06.390Z,8.50
2022-11-27T14:16:04.726Z,8.50
2022-11-27T14:18:55.911Z,10.00
2022-11-27T14:21:44.425Z,8.40
2022-11-27T14:24:41.209Z,8.40
2022-11-27T14:27:36.487Z,8.30
2022-11-27T14:30:34.770Z,8.20
2022-11-27T14:33:27.280Z,8.20
2022-11-27T14:36:25.468Z,8.20
2022-11-27T14:39:24.072Z,8.20
2022-11-27T14:42:27.928Z,8.10
2022-11-27T14:45:21.131Z,8.00
2022-11-27T14:48:26.104Z,8.10
2022-11-27T14:51:19.360Z,8.00
2022-11-27T14:54:14.251Z,8.00
2022-11-27T14:57:03.628Z,8.00
2022-11-27T15:00:05.628Z,7.90
2022-11-27T15:02:55.590Z,7.90
2022-11-27T15:05:56.057Z,7.80
2022-11-27T15:09:09.165Z,7.80
2022-11-27T15:12:09.484Z,7.80
2022-11-27T15:15:05.828Z,7.70
2022-11-27T15:17:59.224Z,7.70
2022-11-27T15:20:49.675Z,7.70
2022-11-27T15:23:39.247Z,7.70
2022-11-27T15:26:39.705Z,7.70
2022-11-27T15:29:37.671Z,7.70
2022-11-27T15:32:35.050Z,7.70
2022-11-27T15:35:32.383Z,7.60
2022-11-27T15:38:22.696Z,7.70
2022-11-27T15:41:26.688Z,7.70
2022-11-27T15:44:16.076Z,7.70
2022-11-27T15:47:06.778Z,7.70
2022-11-27T15:49:55.986Z,7.70
2022-11-27T15:52:44.753Z,7.70
2022-11-27T15:55:34.537Z,7.60
2022-11-27T15:58:22.895Z,7.60
2022-11-27T16:01:12.710Z,7.60
2022-11-27T16:04:01.109Z,7.60
2022-11-27T16:06:49.546Z,7.60
2022-11-27T16:09:39.591Z,7.60
2022-11-27T16:12:29.316Z,7.60
2022-11-27T16:15:17.917Z,7.50
2022-11-27T16:18:07.065Z,7.50
2022-11-27T16:20:55.417Z,7.50
2022-11-27T16:23:44.214Z,7.50
2022-11-27T16:26:32.995Z,7.50
2022-11-27T16:29:23.086Z,7.50
2022-11-27T16:32:11.788Z,7.50
2022-11-27T16:35:00.289Z,7.60
2022-11-27T16:37:48.846Z,7.50
2022-11-27T16:40:37.241Z,7.50
2022-11-27T16:43:25.856Z,7.50
2022-11-27T16:46:18.963Z,7.50
2022-11-27T16:49:09.711Z,7.50
2022-11-27T16:51:58.648Z,7.40
2022-11-27T16:54:47.009Z,7.40
2022-11-27T16:57:35.388Z,7.40
2022-11-27T17:00:23.871Z,7.40
2022-11-27T17:03:13.757Z,7.40
2022-11-27T17:06:07.328Z,7.30
2022-11-27T17:08:56.499Z,7.20
2022-11-27T17:11:49.130Z,7.30
2022-11-27T17:14:38.695Z,7.30
2022-11-27T17:17:27.231Z,7.30
2022-11-27T17:20:17.184Z,7.30
2022-11-27T17:23:05.651Z,7.30
2022-11-27T17:25:54.027Z,7.30
2022-11-27T17:28:42.507Z,7.30
2022-11-27T17:31:35.509Z,7.30
2022-11-27T17:34:24.076Z,7.30
2022-11-27T17:37:13.781Z,7.30
2022-11-27T17:40:02.115Z,7.30
2022-11-27T17:42:50.689Z,7.30
2022-11-27T17:45:42.158Z,7.30
2022-11-27T17:48:30.549Z,7.40
2022-11-27T17:51:20.271Z,7.40
2022-11-27T17:54:12.455Z,7.30
2022-11-27T17:57:00.893Z,7.30
2022-11-27T17:59:50.645Z,7.30
2022-11-27T18:02:39.252Z,7.30
2022-11-27T18:05:27.867Z,7.30
2022-11-27T18:08:16.336Z,7.30
2022-11-27T18:11:12.894Z,7.40
2022-11-27T18:14:01.918Z,7.40
2022-11-27T18:16:51.311Z,7.40
2022-11-27T18:19:39.995Z,7.40
2022-11-27T18:22:30.301Z,7.40
2022-11-27T18:25:18.772Z,7.30
2022-11-27T18:28:08.471Z,7.30
2022-11-27T18:30:56.856Z,7.40
2022-11-27T18:33:45.886Z,7.40
2022-11-27T18:36:34.250Z,7.40
2022-11-27T18:39:22.674Z,7.40
2022-11-27T18:42:11.087Z,7.30
2022-11-27T18:45:00.937Z,7.30
2022-11-27T18:47:49.290Z,7.30
2022-11-27T18:50:37.755Z,7.30
2022-11-27T18:53:26.108Z,7.30
2022-11-27T18:56:17.732Z,7.30
2022-11-27T18:59:09.257Z,7.30
2022-11-27T19:02:00.572Z,7.30
2022-11-27T19:04:50.067Z,7.30
2022-11-27T19:07:38.997Z,7.30
2022-11-27T19:10:27.610Z,7.30
2022-11-27T19:13:15.948Z,7.30
2022-11-27T19:16:07.584Z,7.40
2022-11-27T19:18:59.788Z,7.40
2022-11-27T19:21:48.254Z,7.30
2022-11-27T19:24:38.040Z,7.30
2022-11-27T19:27:26.420Z,7.30
2022-11-27T19:30:15.550Z,7.20
2022-11-27T19:33:04.133Z,7.20
2022-11-27T19:35:53.936Z,7.10
2022-11-27T19:38:43.694Z,7.10
2022-11-27T19:41:32.382Z,7.10
2022-11-27T19:44:23.811Z,7.10
2022-11-27T19:47:12.208Z,7.10
2022-11-27T19:50:00.548Z,7.10
2022-11-27T19:52:50.603Z,7.30
2022-11-27T19:55:39.323Z,7.30
2022-11-27T19:58:27.857Z,7.20
2022-11-27T20:01:19.905Z,7.30
2022-11-27T20:04:12.191Z,7.30
2022-11-27T20:07:00.531Z,7.30
2022-11-27T20:09:50.401Z,7.30
2022-11-27T20:12:40.063Z,7.30
2022-11-27T20:15:29.294Z,7.20
2022-11-27T20:18:18.630Z,7.20
2022-11-27T20:21:09.816Z,7.20
2022-11-27T20:23:58.349Z,7.20
2022-11-27T20:26:48.185Z,7.20
2022-11-27T20:29:36.917Z,7.20
2022-11-27T20:32:25.276Z,7.20
2022-11-27T20:35:15.189Z,7.20
2022-11-27T20:38:03.923Z,7.20
2022-11-27T20:40:52.572Z,7.10
2022-11-27T20:43:43.905Z,7.10
2022-11-27T20:46:33.593Z,7.10
2022-11-27T20:49:23.025Z,7.10
2022-11-27T20:52:13.082Z,7.20
2022-11-27T20:55:01.573Z,7.10
2022-11-27T20:57:53.562Z,7.10
2022-11-27T21:00:45.252Z,7.10
2022-11-27T21:03:34.742Z,7.10
2022-11-27T21:06:27.332Z,7.10
2022-11-27T21:09:15.809Z,7.10
2022-11-27T21:12:06.469Z,7.20
2022-11-27T21:14:54.953Z,7.20
2022-11-27T21:17:45.930Z,7.20
2022-11-27T21:20:34.448Z,7.20
2022-11-27T21:23:22.766Z,7.20
2022-11-27T21:26:12.514Z,7.30
2022-11-27T21:29:01.010Z,7.20
2022-11-27T21:31:49.457Z,7.20
2022-11-27T21:34:40.835Z,7.10
2022-11-27T21:37:30.116Z,7.10
2022-11-27T21:40:19.074Z,7.10
2022-11-27T21:43:07.424Z,7.10
2022-11-27T21:45:55.875Z,7.10
2022-11-27T21:48:45.173Z,7.10
2022-11-27T21:51:35.067Z,7.20
2022-11-27T21:54:25.930Z,7.10
2022-11-27T21:57:14.274Z,7.20
2022-11-27T22:00:02.619Z,7.20
2022-11-27T22:03:00.385Z,7.20
2022-11-27T22:05:48.711Z,7.10
2022-11-27T22:08:38.534Z,7.20
2022-11-27T22:11:30.910Z,7.20
2022-11-27T22:14:19.382Z,7.10
2022-11-27T22:17:07.800Z,7.20
2022-11-27T22:19:56.179Z,7.10
2022-11-27T22:22:45.294Z,7.10
2022-11-27T22:25:35.178Z,7.00
2022-11-27T22:28:23.537Z,7.00
2022-11-27T22:31:15.349Z,7.00
2022-11-27T22:34:03.931Z,7.00
2022-11-27T22:36:52.700Z,7.00
2022-11-27T22:39:41.178Z,6.90
2022-11-27T22:42:31.386Z,6.90
2022-11-27T22:45:19.749Z,6.90
2022-11-27T22:48:08.182Z,6.80
2022-11-27T22:50:57.273Z,6.80
2022-11-27T22:53:45.615Z,6.90
2022-11-27T22:56:36.368Z,6.90
2022-11-27T22:59:34.687Z,6.90
2022-11-27T23:02:25.820Z,6.90
2022-11-27T23:05:14.173Z,6.90
2022-11-27T23:08:02.971Z,6.80
2022-11-27T23:10:52.326Z,6.80
2022-11-27T23:13:44.978Z,6.80
2022-11-27T23:16:38.393Z,6.80
2022-11-27T23:19:26.844Z,6.70
2022-11-27T23:22:15.219Z,6.70
2022-11-27T23:25:03.742Z,6.70
2022-11-27T23:27:52.608Z,6.60
2022-11-27T23:30:40.972Z,6.60
2022-11-27T23:33:30.889Z,6.60
2022-11-27T23:36:19.650Z,6.60
2022-11-27T23:39:11.470Z,6.60
2022-11-27T23:41:59.806Z,6.70
2022-11-27T23:44:48.288Z,6.70
2022-11-27T23:47:36.684Z,6.80
2022-11-27T23:50:26.363Z,6.80
2022-11-27T23:53:14.724Z,6.90
2022-11-27T23:56:03.973Z,6.90
2022-11-27T23:58:52.755Z,6.90
